sensor_id;sensor_type;location;lat;lon;timestamp;pressure;altitude;pressure_sealevel;temperature;humidity
47430;BME280;33181;49.246;7.372;2023-03-25T00:01:06;98124.00;;;8.81;92.66
47430;BME280;33181;49.246;7.372;2023-03-25T00:03:35;98119.84;;;8.78;93.94
47430;BME280;33181;49.246;7.372;2023-03-25T00:06:08;98134.31;;;8.82;93.41
47430;BME280;33181;49.246;7.372;2023-03-25T00:08:34;98125.03;;;8.90;93.60
47430;BME280;33181;49.246;7.372;2023-03-25T00:11:01;98122.00;;;8.94;93.51
47430;BME280;33181;49.246;7.372;2023-03-25T00:13:29;98117.22;;;8.99;93.43
47430;BME280;33181;49.246;7.372;2023-03-25T00:15:59;98100.16;;;9.05;93.97
47430;BME280;33181;49.246;7.372;2023-03-25T00:18:28;98106.19;;;8.96;94.32
47430;BME280;33181;49.246;7.372;2023-03-25T00:21:02;98108.97;;;9.04;95.00
47430;BME280;33181;49.246;7.372;2023-03-25T00:23:30;98104.44;;;9.06;95.49
47430;BME280;33181;49.246;7.372;2023-03-25T00:25:57;98106.44;;;9.23;95.55
47430;BME280;33181;49.246;7.372;2023-03-25T00:28:30;98123.13;;;9.22;95.50
47430;BME280;33181;49.246;7.372;2023-03-25T00:31:02;98140.81;;;9.30;95.42
47430;BME280;33181;49.246;7.372;2023-03-25T00:33:32;98169.97;;;8.95;95.87
47430;BME280;33181;49.246;7.372;2023-03-25T00:36:00;98187.09;;;8.34;94.73
47430;BME280;33181;49.246;7.372;2023-03-25T00:38:28;98177.00;;;7.86;95.93
47430;BME280;33181;49.246;7.372;2023-03-25T00:41:24;98175.09;;;7.43;95.32
47430;BME280;33181;49.246;7.372;2023-03-25T00:43:52;98188.41;;;7.29;96.91
47430;BME280;33181;49.246;7.372;2023-03-25T00:46:18;98174.47;;;7.17;98.41
47430;BME280;33181;49.246;7.372;2023-03-25T00:48:45;98188.72;;;7.13;100.00
47430;BME280;33181;49.246;7.372;2023-03-25T00:51:10;98170.69;;;7.22;100.00
47430;BME280;33181;49.246;7.372;2023-03-25T00:53:39;98171.44;;;7.35;100.00
47430;BME280;33181;49.246;7.372;2023-03-25T00:56:06;98159.78;;;7.39;99.39
47430;BME280;33181;49.246;7.372;2023-03-25T00:58:32;98155.13;;;7.31;99.24
47430;BME280;33181;49.246;7.372;2023-03-25T01:00:58;98143.16;;;7.17;98.72
47430;BME280;33181;49.246;7.372;2023-03-25T01:03:27;98140.66;;;7.27;98.88
47430;BME280;33181;49.246;7.372;2023-03-25T01:05:55;98133.78;;;7.26;98.47
47430;BME280;33181;49.246;7.372;2023-03-25T01:08:22;98115.25;;;7.40;98.23
47430;BME280;33181;49.246;7.372;2023-03-25T01:10:55;98120.47;;;7.52;98.18
47430;BME280;33181;49.246;7.372;2023-03-25T01:13:22;98127.47;;;7.40;98.57
47430;BME280;33181;49.246;7.372;2023-03-25T01:15:48;98128.19;;;7.31;98.58
47430;BME280;33181;49.246;7.372;2023-03-25T01:18:14;98130.47;;;7.35;99.44
47430;BME280;33181;49.246;7.372;2023-03-25T01:20:41;98128.94;;;7.44;99.21
47430;BME280;33181;49.246;7.372;2023-03-25T01:23:06;98125.81;;;7.39;98.08
47430;BME280;33181;49.246;7.372;2023-03-25T01:25:35;98124.97;;;7.50;97.26
47430;BME280;33181;49.246;7.372;2023-03-25T01:28:01;98127.59;;;7.50;96.93
47430;BME280;33181;49.246;7.372;2023-03-25T01:30:27;98129.50;;;7.48;96.80
47430;BME280;33181;49.246;7.372;2023-03-25T01:32:53;98127.00;;;7.57;96.58
47430;BME280;33181;49.246;7.372;2023-03-25T01:35:19;98134.50;;;7.51;97.09
47430;BME280;33181;49.246;7.372;2023-03-25T01:37:44;98129.03;;;7.54;96.47
47430;BME280;33181;49.246;7.372;2023-03-25T01:40:18;98126.88;;;7.36;96.95
47430;BME280;33181;49.246;7.372;2023-03-25T01:42:46;98126.06;;;7.36;96.93
47430;BME280;33181;49.246;7.372;2023-03-25T01:45:22;98133.31;;;7.32;96.56
47430;BME280;33181;49.246;7.372;2023-03-25T01:48:05;98135.91;;;7.43;96.54
47430;BME280;33181;49.246;7.372;2023-03-25T01:50:36;98142.81;;;7.45;96.81
47430;BME280;33181;49.246;7.372;2023-03-25T01:53:04;98150.41;;;7.48;96.48
47430;BME280;33181;49.246;7.372;2023-03-25T01:55:32;98129.63;;;7.46;95.25
47430;BME280;33181;49.246;7.372;2023-03-25T01:58:03;98139.63;;;7.41;94.96
47430;BME280;33181;49.246;7.372;2023-03-25T02:00:32;98148.72;;;7.47;94.91
47430;BME280;33181;49.246;7.372;2023-03-25T02:02:59;98139.47;;;7.42;94.62
47430;BME280;33181;49.246;7.372;2023-03-25T02:05:52;98148.97;;;7.43;94.73
47430;BME280;33181;49.246;7.372;2023-03-25T02:08:24;98141.97;;;7.33;94.18
47430;BME280;33181;49.246;7.372;2023-03-25T02:10:50;98146.38;;;7.32;94.40
47430;BME280;33181;49.246;7.372;2023-03-25T02:13:17;98147.56;;;7.39;94.42
47430;BME280;33181;49.246;7.372;2023-03-25T02:28:49;98165.94;;;7.15;96.05
47430;BME280;33181;49.246;7.372;2023-03-25T02:37:18;98154.44;;;7.29;95.80
47430;BME280;33181;49.246;7.372;2023-03-25T02:39:58;98148.50;;;7.16;95.90
47430;BME280;33181;49.246;7.372;2023-03-25T02:42:52;98145.41;;;7.22;96.71
47430;BME280;33181;49.246;7.372;2023-03-25T02:45:39;98152.19;;;7.36;96.35
47430;BME280;33181;49.246;7.372;2023-03-25T02:48:41;98142.34;;;7.28;95.93
47430;BME280;33181;49.246;7.372;2023-03-25T02:51:17;98136.84;;;7.31;95.92
47430;BME280;33181;49.246;7.372;2023-03-25T02:53:47;98127.72;;;7.37;95.78
47430;BME280;33181;49.246;7.372;2023-03-25T02:56:17;98128.78;;;7.34;95.42
47430;BME280;33181;49.246;7.372;2023-03-25T02:58:47;98134.97;;;7.45;95.78
47430;BME280;33181;49.246;7.372;2023-03-25T03:01:14;98132.69;;;7.40;95.71
47430;BME280;33181;49.246;7.372;2023-03-25T03:03:40;98133.06;;;7.47;95.74
47430;BME280;33181;49.246;7.372;2023-03-25T03:06:07;98122.38;;;7.50;95.14
47430;BME280;33181;49.246;7.372;2023-03-25T03:14:26;98112.16;;;7.58;95.36
47430;BME280;33181;49.246;7.372;2023-03-25T03:23:18;98108.00;;;7.55;95.48
47430;BME280;33181;49.246;7.372;2023-03-25T03:25:58;98111.09;;;7.60;95.04
47430;BME280;33181;49.246;7.372;2023-03-25T03:28:44;98096.81;;;7.64;93.90
47430;BME280;33181;49.246;7.372;2023-03-25T03:31:49;98105.81;;;7.72;94.15
47430;BME280;33181;49.246;7.372;2023-03-25T03:34:26;98093.38;;;7.64;94.66
47430;BME280;33181;49.246;7.372;2023-03-25T03:36:57;98092.78;;;7.60;95.01
47430;BME280;33181;49.246;7.372;2023-03-25T03:39:33;98092.91;;;7.59;94.90
47430;BME280;33181;49.246;7.372;2023-03-25T03:42:20;98090.28;;;7.59;94.38
47430;BME280;33181;49.246;7.372;2023-03-25T03:44:52;98089.31;;;7.71;94.33
47430;BME280;33181;49.246;7.372;2023-03-25T03:47:24;98082.03;;;7.86;94.18
47430;BME280;33181;49.246;7.372;2023-03-25T03:49:58;98093.97;;;7.68;94.38
47430;BME280;33181;49.246;7.372;2023-03-25T03:52:33;98098.22;;;7.69;95.56
47430;BME280;33181;49.246;7.372;2023-03-25T03:55:27;98100.25;;;7.76;95.78
47430;BME280;33181;49.246;7.372;2023-03-25T03:58:02;98099.03;;;7.80;95.71
47430;BME280;33181;49.246;7.372;2023-03-25T04:00:58;98108.91;;;7.77;95.69
47430;BME280;33181;49.246;7.372;2023-03-25T04:03:52;98114.28;;;7.53;96.79
47430;BME280;33181;49.246;7.372;2023-03-25T04:06:23;98124.16;;;7.60;97.10
47430;BME280;33181;49.246;7.372;2023-03-25T04:09:05;98120.47;;;7.52;97.06
47430;BME280;33181;49.246;7.372;2023-03-25T04:11:43;98131.75;;;7.52;97.58
47430;BME280;33181;49.246;7.372;2023-03-25T04:14:12;98137.31;;;7.59;97.15
47430;BME280;33181;49.246;7.372;2023-03-25T04:16:38;98133.41;;;7.53;96.76
47430;BME280;33181;49.246;7.372;2023-03-25T04:19:05;98136.63;;;7.57;97.24
47430;BME280;33181;49.246;7.372;2023-03-25T04:21:34;98132.81;;;7.61;96.59
47430;BME280;33181;49.246;7.372;2023-03-25T04:24:00;98143.84;;;7.64;96.74
47430;BME280;33181;49.246;7.372;2023-03-25T04:26:29;98144.94;;;7.62;96.35
47430;BME280;33181;49.246;7.372;2023-03-25T04:28:59;98145.06;;;7.49;96.06
47430;BME280;33181;49.246;7.372;2023-03-25T04:31:26;98150.63;;;7.56;95.93
47430;BME280;33181;49.246;7.372;2023-03-25T04:33:56;98145.44;;;7.45;96.68
47430;BME280;33181;49.246;7.372;2023-03-25T04:36:24;98154.09;;;7.45;96.41
47430;BME280;33181;49.246;7.372;2023-03-25T04:38:53;98144.81;;;7.52;96.62
47430;BME280;33181;49.246;7.372;2023-03-25T04:41:23;98144.72;;;7.54;96.63
47430;BME280;33181;49.246;7.372;2023-03-25T04:43:48;98152.41;;;7.55;96.80
47430;BME280;33181;49.246;7.372;2023-03-25T04:46:16;98148.84;;;7.56;96.78
47430;BME280;33181;49.246;7.372;2023-03-25T04:48:43;98145.78;;;7.51;97.45
47430;BME280;33181;49.246;7.372;2023-03-25T04:51:11;98147.91;;;7.57;97.51
47430;BME280;33181;49.246;7.372;2023-03-25T04:53:39;98149.09;;;7.64;97.19
47430;BME280;33181;49.246;7.372;2023-03-25T04:56:07;98151.00;;;7.51;97.42
47430;BME280;33181;49.246;7.372;2023-03-25T04:58:38;98148.25;;;7.53;97.27
47430;BME280;33181;49.246;7.372;2023-03-25T05:01:05;98141.13;;;7.55;96.95
47430;BME280;33181;49.246;7.372;2023-03-25T05:03:32;98151.09;;;7.50;97.14
47430;BME280;33181;49.246;7.372;2023-03-25T05:05:58;98149.44;;;7.49;96.53
47430;BME280;33181;49.246;7.372;2023-03-25T05:08:25;98149.81;;;7.44;96.61
47430;BME280;33181;49.246;7.372;2023-03-25T05:10:50;98153.97;;;7.47;96.19
47430;BME280;33181;49.246;7.372;2023-03-25T05:13:17;98148.25;;;7.53;96.07
47430;BME280;33181;49.246;7.372;2023-03-25T05:15:42;98154.44;;;7.63;95.78
47430;BME280;33181;49.246;7.372;2023-03-25T05:18:11;98146.22;;;7.68;95.39
47430;BME280;33181;49.246;7.372;2023-03-25T05:20:40;98149.22;;;7.63;95.08
47430;BME280;33181;49.246;7.372;2023-03-25T05:23:08;98145.63;;;7.75;94.28
47430;BME280;33181;49.246;7.372;2023-03-25T05:25:38;98153.94;;;7.69;94.18
47430;BME280;33181;49.246;7.372;2023-03-25T05:28:04;98152.53;;;7.65;94.22
47430;BME280;33181;49.246;7.372;2023-03-25T05:30:35;98153.00;;;7.59;93.87
47430;BME280;33181;49.246;7.372;2023-03-25T05:33:04;98154.44;;;7.63;94.30
47430;BME280;33181;49.246;7.372;2023-03-25T05:35:30;98160.16;;;7.57;94.37
47430;BME280;33181;49.246;7.372;2023-03-25T05:37:56;98159.19;;;7.58;94.57
47430;BME280;33181;49.246;7.372;2023-03-25T05:40:22;98158.38;;;7.57;94.51
47430;BME280;33181;49.246;7.372;2023-03-25T05:42:48;98166.56;;;7.64;94.26
47430;BME280;33181;49.246;7.372;2023-03-25T05:45:15;98170.38;;;7.60;94.70
47430;BME280;33181;49.246;7.372;2023-03-25T05:47:42;98175.69;;;7.58;93.70
47430;BME280;33181;49.246;7.372;2023-03-25T05:50:09;98169.28;;;7.74;93.78
47430;BME280;33181;49.246;7.372;2023-03-25T05:52:35;98167.28;;;7.66;93.62
47430;BME280;33181;49.246;7.372;2023-03-25T05:55:02;98166.44;;;7.77;93.06
47430;BME280;33181;49.246;7.372;2023-03-25T05:57:29;98159.84;;;7.94;92.36
47430;BME280;33181;49.246;7.372;2023-03-25T05:59:55;98161.28;;;7.98;91.90
47430;BME280;33181;49.246;7.372;2023-03-25T06:02:22;98158.56;;;7.88;92.38
47430;BME280;33181;49.246;7.372;2023-03-25T06:04:48;98161.78;;;7.80;92.28
47430;BME280;33181;49.246;7.372;2023-03-25T06:07:16;98159.28;;;7.90;92.82
47430;BME280;33181;49.246;7.372;2023-03-25T06:09:46;98164.50;;;7.90;91.60
47430;BME280;33181;49.246;7.372;2023-03-25T06:12:16;98159.34;;;8.11;91.02
47430;BME280;33181;49.246;7.372;2023-03-25T06:14:44;98162.78;;;8.11;90.59
47430;BME280;33181;49.246;7.372;2023-03-25T06:17:15;98156.19;;;8.28;90.07
47430;BME280;33181;49.246;7.372;2023-03-25T06:19:43;98154.00;;;8.56;88.59
47430;BME280;33181;49.246;7.372;2023-03-25T06:22:10;98155.94;;;8.96;85.93
47430;BME280;33181;49.246;7.372;2023-03-25T06:24:37;98168.03;;;9.39;85.10
47430;BME280;33181;49.246;7.372;2023-03-25T06:27:14;98162.81;;;9.89;81.96
47430;BME280;33181;49.246;7.372;2023-03-25T06:29:40;98161.00;;;10.30;80.07
47430;BME280;33181;49.246;7.372;2023-03-25T06:32:07;98168.53;;;10.04;79.17
47430;BME280;33181;49.246;7.372;2023-03-25T06:34:34;98184.34;;;9.83;79.91
47430;BME280;33181;49.246;7.372;2023-03-25T06:37:00;98172.94;;;9.53;81.89
47430;BME280;33181;49.246;7.372;2023-03-25T06:39:27;98176.78;;;9.49;82.18
47430;BME280;33181;49.246;7.372;2023-03-25T06:41:57;98164.59;;;9.17;84.07
47430;BME280;33181;49.246;7.372;2023-03-25T06:44:23;98152.72;;;9.13;84.44
47430;BME280;33181;49.246;7.372;2023-03-25T06:46:49;98140.94;;;9.28;84.51
47430;BME280;33181;49.246;7.372;2023-03-25T06:49:15;98149.75;;;9.58;83.37
47430;BME280;33181;49.246;7.372;2023-03-25T06:51:40;98149.84;;;9.47;81.97
47430;BME280;33181;49.246;7.372;2023-03-25T06:54:06;98165.84;;;9.44;83.09
47430;BME280;33181;49.246;7.372;2023-03-25T06:56:32;98162.44;;;9.53;83.11
47430;BME280;33181;49.246;7.372;2023-03-25T06:58:58;98166.81;;;9.43;83.55
47430;BME280;33181;49.246;7.372;2023-03-25T07:01:24;98152.41;;;9.27;84.56
47430;BME280;33181;49.246;7.372;2023-03-25T07:03:50;98157.19;;;9.22;85.84
47430;BME280;33181;49.246;7.372;2023-03-25T07:06:21;98153.75;;;9.01;86.20
47430;BME280;33181;49.246;7.372;2023-03-25T07:08:48;98145.25;;;8.88;87.64
47430;BME280;33181;49.246;7.372;2023-03-25T07:11:16;98140.28;;;9.05;87.79
47430;BME280;33181;49.246;7.372;2023-03-25T07:13:43;98140.84;;;9.09;87.26
47430;BME280;33181;49.246;7.372;2023-03-25T07:16:09;98142.47;;;9.31;87.46
47430;BME280;33181;49.246;7.372;2023-03-25T07:18:36;98138.25;;;9.40;86.07
47430;BME280;33181;49.246;7.372;2023-03-25T07:21:02;98135.81;;;9.58;85.67
47430;BME280;33181;49.246;7.372;2023-03-25T07:23:27;98143.56;;;9.59;84.27
47430;BME280;33181;49.246;7.372;2023-03-25T07:25:53;98134.56;;;9.52;83.88
47430;BME280;33181;49.246;7.372;2023-03-25T07:28:21;98142.16;;;9.55;83.83
47430;BME280;33181;49.246;7.372;2023-03-25T07:30:48;98127.00;;;9.59;84.11
47430;BME280;33181;49.246;7.372;2023-03-25T07:33:13;98136.81;;;9.66;82.60
47430;BME280;33181;49.246;7.372;2023-03-25T07:35:39;98140.13;;;9.59;81.08
47430;BME280;33181;49.246;7.372;2023-03-25T07:38:08;98138.34;;;9.69;81.58
47430;BME280;33181;49.246;7.372;2023-03-25T07:40:34;98135.34;;;9.83;81.17
47430;BME280;33181;49.246;7.372;2023-03-25T07:43:00;98143.13;;;10.14;80.58
47430;BME280;33181;49.246;7.372;2023-03-25T07:45:26;98142.78;;;10.38;78.67
47430;BME280;33181;49.246;7.372;2023-03-25T07:47:51;98143.94;;;10.05;78.98
47430;BME280;33181;49.246;7.372;2023-03-25T07:50:20;98153.56;;;9.75;80.78
47430;BME280;33181;49.246;7.372;2023-03-25T07:52:46;98155.16;;;9.66;80.33
47430;BME280;33181;49.246;7.372;2023-03-25T07:55:13;98163.03;;;9.66;81.03
47430;BME280;33181;49.246;7.372;2023-03-25T07:57:42;98158.50;;;9.68;80.97
47430;BME280;33181;49.246;7.372;2023-03-25T08:00:09;98163.94;;;9.46;81.52
47430;BME280;33181;49.246;7.372;2023-03-25T08:02:35;98166.59;;;9.25;82.71
47430;BME280;33181;49.246;7.372;2023-03-25T08:05:01;98148.94;;;9.27;83.04
47430;BME280;33181;49.246;7.372;2023-03-25T08:07:27;98166.59;;;9.25;83.72
47430;BME280;33181;49.246;7.372;2023-03-25T08:09:54;98163.44;;;9.31;82.86
47430;BME280;33181;49.246;7.372;2023-03-25T08:12:20;98155.69;;;9.29;82.61
47430;BME280;33181;49.246;7.372;2023-03-25T08:14:46;98158.09;;;9.42;82.21
47430;BME280;33181;49.246;7.372;2023-03-25T08:17:11;98155.13;;;9.57;81.38
47430;BME280;33181;49.246;7.372;2023-03-25T08:19:37;98157.22;;;9.63;81.60
47430;BME280;33181;49.246;7.372;2023-03-25T08:22:03;98165.16;;;9.82;80.91
47430;BME280;33181;49.246;7.372;2023-03-25T08:24:29;98180.88;;;9.72;80.44
47430;BME280;33181;49.246;7.372;2023-03-25T08:26:57;98158.53;;;9.78;80.86
47430;BME280;33181;49.246;7.372;2023-03-25T08:29:26;98176.22;;;9.86;79.96
47430;BME280;33181;49.246;7.372;2023-03-25T08:31:52;98165.97;;;9.73;78.59
47430;BME280;33181;49.246;7.372;2023-03-25T08:34:20;98178.31;;;9.61;79.88
47430;BME280;33181;49.246;7.372;2023-03-25T08:36:46;98172.03;;;9.73;80.93
47430;BME280;33181;49.246;7.372;2023-03-25T08:39:12;98166.72;;;9.54;80.58
47430;BME280;33181;49.246;7.372;2023-03-25T08:41:43;98169.81;;;9.69;80.79
47430;BME280;33181;49.246;7.372;2023-03-25T08:44:10;98171.09;;;9.74;81.15
47430;BME280;33181;49.246;7.372;2023-03-25T08:46:36;98171.88;;;9.65;80.85
47430;BME280;33181;49.246;7.372;2023-03-25T08:49:05;98179.91;;;9.73;81.33
47430;BME280;33181;49.246;7.372;2023-03-25T08:51:31;98183.41;;;9.84;81.00
47430;BME280;33181;49.246;7.372;2023-03-25T08:53:57;98192.22;;;9.83;79.68
47430;BME280;33181;49.246;7.372;2023-03-25T08:56:23;98178.09;;;9.74;80.45
47430;BME280;33181;49.246;7.372;2023-03-25T08:58:49;98183.66;;;9.81;80.37
47430;BME280;33181;49.246;7.372;2023-03-25T09:01:14;98169.28;;;9.75;79.07
47430;BME280;33181;49.246;7.372;2023-03-25T09:03:40;98172.53;;;9.98;79.74
47430;BME280;33181;49.246;7.372;2023-03-25T09:06:07;98173.75;;;9.94;79.41
47430;BME280;33181;49.246;7.372;2023-03-25T09:08:35;98168.38;;;10.05;79.81
47430;BME280;33181;49.246;7.372;2023-03-25T09:11:02;98171.31;;;10.12;79.47
47430;BME280;33181;49.246;7.372;2023-03-25T09:13:46;98177.13;;;10.06;79.76
47430;BME280;33181;49.246;7.372;2023-03-25T09:16:12;98185.09;;;10.04;79.27
47430;BME280;33181;49.246;7.372;2023-03-25T09:18:37;98175.88;;;10.10;76.67
47430;BME280;33181;49.246;7.372;2023-03-25T09:21:03;98177.13;;;10.15;75.72
47430;BME280;33181;49.246;7.372;2023-03-25T09:23:29;98183.53;;;10.32;76.48
47430;BME280;33181;49.246;7.372;2023-03-25T09:26:00;98165.28;;;10.31;75.04
47430;BME280;33181;49.246;7.372;2023-03-25T09:28:28;98158.28;;;10.41;76.58
47430;BME280;33181;49.246;7.372;2023-03-25T09:30:55;98156.47;;;10.51;75.66
47430;BME280;33181;49.246;7.372;2023-03-25T09:33:21;98154.63;;;10.23;75.54
47430;BME280;33181;49.246;7.372;2023-03-25T09:35:48;98159.16;;;10.20;75.51
47430;BME280;33181;49.246;7.372;2023-03-25T09:38:15;98149.69;;;10.39;75.02
47430;BME280;33181;49.246;7.372;2023-03-25T09:40:42;98147.59;;;10.62;73.75
47430;BME280;33181;49.246;7.372;2023-03-25T09:45:56;98157.28;;;10.71;75.68
47430;BME280;33181;49.246;7.372;2023-03-25T09:48:36;98166.41;;;10.48;80.48
47430;BME280;33181;49.246;7.372;2023-03-25T09:51:13;98167.63;;;10.34;81.02
47430;BME280;33181;49.246;7.372;2023-03-25T09:53:49;98169.59;;;10.32;79.25
47430;BME280;33181;49.246;7.372;2023-03-25T09:56:22;98150.94;;;10.74;77.78
47430;BME280;33181;49.246;7.372;2023-03-25T09:58:52;98152.59;;;10.94;75.63
47430;BME280;33181;49.246;7.372;2023-03-25T10:01:25;98153.13;;;10.88;75.34
47430;BME280;33181;49.246;7.372;2023-03-25T10:04:07;98157.66;;;11.05;76.29
47430;BME280;33181;49.246;7.372;2023-03-25T10:06:55;98160.00;;;11.08;76.22
47430;BME280;33181;49.246;7.372;2023-03-25T10:12:46;98161.94;;;11.06;75.75
47430;BME280;33181;49.246;7.372;2023-03-25T10:21:18;98172.84;;;11.21;73.78
47430;BME280;33181;49.246;7.372;2023-03-25T10:24:21;98173.56;;;11.60;71.61
47430;BME280;33181;49.246;7.372;2023-03-25T10:27:14;98162.06;;;12.17;70.34
47430;BME280;33181;49.246;7.372;2023-03-25T10:29:52;98181.84;;;12.03;70.00
47430;BME280;33181;49.246;7.372;2023-03-25T10:32:40;98197.44;;;11.87;70.16
47430;BME280;33181;49.246;7.372;2023-03-25T10:35:15;98219.88;;;11.24;74.15
47430;BME280;33181;49.246;7.372;2023-03-25T10:37:42;98221.13;;;10.42;75.41
47430;BME280;33181;49.246;7.372;2023-03-25T10:40:18;98235.66;;;10.06;78.50
47430;BME280;33181;49.246;7.372;2023-03-25T10:45:44;98237.13;;;9.59;81.58
47430;BME280;33181;49.246;7.372;2023-03-25T10:48:26;98244.22;;;9.47;83.42
47430;BME280;33181;49.246;7.372;2023-03-25T10:51:21;98244.75;;;9.41;84.60
47430;BME280;33181;49.246;7.372;2023-03-25T10:53:50;98254.09;;;9.34;84.70
47430;BME280;33181;49.246;7.372;2023-03-25T10:56:33;98260.00;;;9.36;86.29
47430;BME280;33181;49.246;7.372;2023-03-25T11:01:44;98240.72;;;9.67;86.01
47430;BME280;33181;49.246;7.372;2023-03-25T11:04:17;98227.41;;;10.20;84.26
47430;BME280;33181;49.246;7.372;2023-03-25T11:06:54;98225.84;;;10.58;80.25
47430;BME280;33181;49.246;7.372;2023-03-25T11:09:25;98228.09;;;10.82;77.75
47430;BME280;33181;49.246;7.372;2023-03-25T11:11:53;98237.34;;;10.77;74.85
47430;BME280;33181;49.246;7.372;2023-03-25T11:14:24;98229.19;;;10.80;72.40
47430;BME280;33181;49.246;7.372;2023-03-25T11:16:57;98238.88;;;10.70;73.14
47430;BME280;33181;49.246;7.372;2023-03-25T11:19:35;98233.06;;;10.66;72.79
47430;BME280;33181;49.246;7.372;2023-03-25T11:22:12;98226.28;;;10.63;71.61
47430;BME280;33181;49.246;7.372;2023-03-25T11:24:44;98232.78;;;10.79;70.29
47430;BME280;33181;49.246;7.372;2023-03-25T11:27:24;98240.66;;;11.08;69.88
47430;BME280;33181;49.246;7.372;2023-03-25T11:30:03;98224.44;;;11.32;68.22
47430;BME280;33181;49.246;7.372;2023-03-25T11:32:38;98227.75;;;11.91;67.07
47430;BME280;33181;49.246;7.372;2023-03-25T11:35:26;98231.63;;;12.42;64.37
47430;BME280;33181;49.246;7.372;2023-03-25T11:38:00;98232.56;;;12.50;59.61
47430;BME280;33181;49.246;7.372;2023-03-25T11:40:28;98234.16;;;12.61;58.37
47430;BME280;33181;49.246;7.372;2023-03-25T11:42:57;98236.66;;;12.81;59.37
47430;BME280;33181;49.246;7.372;2023-03-25T11:45:35;98229.00;;;13.13;59.45
47430;BME280;33181;49.246;7.372;2023-03-25T11:48:36;98234.38;;;13.65;56.43
47430;BME280;33181;49.246;7.372;2023-03-25T11:51:27;98249.69;;;13.62;56.04
47430;BME280;33181;49.246;7.372;2023-03-25T11:54:07;98239.75;;;13.56;52.93
47430;BME280;33181;49.246;7.372;2023-03-25T11:56:41;98245.66;;;13.50;52.85
47430;BME280;33181;49.246;7.372;2023-03-25T11:59:26;98241.28;;;13.66;55.38
47430;BME280;33181;49.246;7.372;2023-03-25T12:02:25;98224.31;;;14.03;54.13
47430;BME280;33181;49.246;7.372;2023-03-25T12:05:00;98213.03;;;14.44;54.02
47430;BME280;33181;49.246;7.372;2023-03-25T12:07:26;98231.84;;;14.41;51.31
47430;BME280;33181;49.246;7.372;2023-03-25T12:10:05;98221.59;;;14.88;51.26
47430;BME280;33181;49.246;7.372;2023-03-25T12:13:05;98225.63;;;14.50;49.16
47430;BME280;33181;49.246;7.372;2023-03-25T12:15:39;98224.78;;;14.49;49.82
47430;BME280;33181;49.246;7.372;2023-03-25T12:19:23;98225.22;;;14.95;49.88
47430;BME280;33181;49.246;7.372;2023-03-25T12:21:38;98217.13;;;15.21;50.02
47430;BME280;33181;49.246;7.372;2023-03-25T12:36:32;98219.09;;;13.51;48.93
47430;BME280;33181;49.246;7.372;2023-03-25T12:48:14;98216.22;;;13.71;49.72
47430;BME280;33181;49.246;7.372;2023-03-25T13:05:05;98210.25;;;14.45;49.24
47430;BME280;33181;49.246;7.372;2023-03-25T13:08:04;98201.50;;;14.45;49.55
47430;BME280;33181;49.246;7.372;2023-03-25T13:10:36;98202.81;;;14.49;48.30
47430;BME280;33181;49.246;7.372;2023-03-25T13:13:09;98207.00;;;14.51;48.33
47430;BME280;33181;49.246;7.372;2023-03-25T13:15:47;98198.25;;;14.67;46.57
47430;BME280;33181;49.246;7.372;2023-03-25T13:18:27;98214.31;;;14.74;45.78
47430;BME280;33181;49.246;7.372;2023-03-25T13:21:22;98209.50;;;14.94;45.21
47430;BME280;33181;49.246;7.372;2023-03-25T13:24:09;98214.13;;;14.67;45.79
47430;BME280;33181;49.246;7.372;2023-03-25T13:26:39;98199.38;;;14.48;46.09
47430;BME280;33181;49.246;7.372;2023-03-25T13:29:36;98183.66;;;14.38;46.38
47430;BME280;33181;49.246;7.372;2023-03-25T13:32:24;98189.19;;;14.11;46.17
47430;BME280;33181;49.246;7.372;2023-03-25T13:35:26;98189.56;;;13.82;47.77
47430;BME280;33181;49.246;7.372;2023-03-25T13:38:00;98189.25;;;13.51;48.17
47430;BME280;33181;49.246;7.372;2023-03-25T13:40:33;98179.56;;;13.33;48.52
47430;BME280;33181;49.246;7.372;2023-03-25T13:43:30;98166.38;;;13.59;48.21
47430;BME280;33181;49.246;7.372;2023-03-25T13:46:17;98177.09;;;14.00;49.03
47430;BME280;33181;49.246;7.372;2023-03-25T13:51:28;98178.16;;;14.16;45.56
47430;BME280;33181;49.246;7.372;2023-03-25T14:14:05;98176.13;;;14.76;44.59
47430;BME280;33181;49.246;7.372;2023-03-25T14:16:56;98176.78;;;14.62;46.15
47430;BME280;33181;49.246;7.372;2023-03-25T14:19:35;98177.78;;;14.69;47.51
47430;BME280;33181;49.246;7.372;2023-03-25T14:22:17;98164.91;;;14.82;48.08
47430;BME280;33181;49.246;7.372;2023-03-25T14:24:45;98164.25;;;14.72;49.67
47430;BME280;33181;49.246;7.372;2023-03-25T14:30:02;98170.19;;;14.66;49.78
47430;BME280;33181;49.246;7.372;2023-03-25T14:32:40;98189.34;;;14.68;49.16
47430;BME280;33181;49.246;7.372;2023-03-25T14:43:45;98180.75;;;14.07;49.31
47430;BME280;33181;49.246;7.372;2023-03-25T14:46:16;98194.72;;;13.91;49.82
47430;BME280;33181;49.246;7.372;2023-03-25T14:49:16;98178.97;;;13.74;50.20
47430;BME280;33181;49.246;7.372;2023-03-25T14:51:47;98191.84;;;13.77;50.49
47430;BME280;33181;49.246;7.372;2023-03-25T14:54:31;98196.16;;;13.78;49.97
47430;BME280;33181;49.246;7.372;2023-03-25T14:57:14;98197.59;;;13.72;49.54
47430;BME280;33181;49.246;7.372;2023-03-25T14:59:52;98191.72;;;13.86;50.07
47430;BME280;33181;49.246;7.372;2023-03-25T15:02:27;98185.50;;;13.61;48.29
47430;BME280;33181;49.246;7.372;2023-03-25T15:05:19;98184.09;;;13.49;49.73
47430;BME280;33181;49.246;7.372;2023-03-25T15:07:56;98198.03;;;13.59;50.18
47430;BME280;33181;49.246;7.372;2023-03-25T15:10:39;98192.69;;;13.43;50.92
47430;BME280;33181;49.246;7.372;2023-03-25T15:19:12;98176.84;;;13.43;51.24
47430;BME280;33181;49.246;7.372;2023-03-25T15:24:39;98180.69;;;13.57;51.46
47430;BME280;33181;49.246;7.372;2023-03-25T15:28:21;98183.28;;;13.49;51.77
47430;BME280;33181;49.246;7.372;2023-03-25T15:31:20;98180.19;;;13.53;52.81
47430;BME280;33181;49.246;7.372;2023-03-25T15:34:38;98179.13;;;13.46;51.90
47430;BME280;33181;49.246;7.372;2023-03-25T15:47:21;98184.81;;;13.25;53.25
47430;BME280;33181;49.246;7.372;2023-03-25T15:55:30;98232.59;;;12.86;55.60
47430;BME280;33181;49.246;7.372;2023-03-25T15:58:16;98243.69;;;12.44;61.28
47430;BME280;33181;49.246;7.372;2023-03-25T16:00:51;98232.72;;;12.21;62.43